Anson, Texas
Current Conditions -  °F | °C
As of 7:58 PM on Thursday 20 Nov 2014 (Local Time) from KDYS Reporting Station
Clear Clear  
Wind Chill: 53°   Ceiling: Unl
Heat Index: 53°   Visibility: 10mi
Dew Point: 40°   Wind: 7mph
Humidity: 62%   Direction: 200°SSW
Pressure: 29.96"   Gusts: NA
Location:  32.76°N, 99.9°W
Report Text: KDYS 210158Z AUTO 20006KT 10SM CLR 12/04 A2996 RMK AO2 SLP135 T01150044 $
Loading
Personal Weather Stations






























Interactive Weather Map New forecast layout! Learn more

10-Day Weather Forecast

Advertisements
Track Severe Weather on mobile